Time;durP1;ratioP1;P1;durP2;ratioP2;P2;SDS_P1;SDS_P2;PMS_P1;PMS_P2;Temp;Humidity;BMP_temperature;BMP_pressure;BME280_temperature;BME280_humidity;BME280_pressure;Samples;Min_cycle;Max_cycle;Signal;HPM_P1;HPM_P2
2023/10/29 00:03:35;;;;;;;2.38;0.70;;;;;;;14.65;100.00;98182.81;12199570;19;20026;-82
2023/10/29 00:07:37;;;;;;;2.53;1.00;;;;;;;14.69;100.00;98181.03;12175856;19;20006;-82
2023/10/29 00:11:39;;;;;;;3.45;1.05;;;;;;;14.67;100.00;98175.03;12198863;19;20003;-84
2023/10/29 00:15:41;;;;;;;4.22;0.90;;;;;;;14.70;100.00;98169.66;12197539;19;20420;-82
2023/10/29 00:19:42;;;;;;;1.92;0.90;;;;;;;14.69;100.00;98162.44;12173371;19;20006;-81
2023/10/29 00:23:45;;;;;;;2.80;0.70;;;;;;;14.77;100.00;98164.47;12197399;19;20011;-82
2023/10/29 00:27:47;;;;;;;1.88;1.00;;;;;;;14.91;99.30;98169.94;12197227;19;20034;-84
2023/10/29 00:31:49;;;;;;;5.05;0.80;;;;;;;14.94;98.78;98141.56;12174358;19;20018;-80
2023/10/29 00:35:50;;;;;;;3.63;0.80;;;;;;;14.98;97.28;98130.66;12197198;19;20010;-85
2023/10/29 00:39:53;;;;;;;1.88;0.80;;;;;;;14.98;93.95;98142.53;12199630;19;20007;-84
2023/10/29 00:43:54;;;;;;;2.50;0.95;;;;;;;15.10;93.58;98121.72;12177818;19;20007;-86
2023/10/29 00:47:57;;;;;;;1.30;0.82;;;;;;;15.16;91.50;98124.00;12194484;19;20025;-84
2023/10/29 00:52:00;;;;;;;3.80;0.80;;;;;;;15.20;89.28;98113.94;12175330;19;20011;-83
2023/10/29 00:56:02;;;;;;;1.23;0.73;;;;;;;15.35;89.31;98129.31;12211039;19;20030;-84
2023/10/29 01:00:06;;;;;;;4.77;0.93;;;;;;;15.40;86.71;98136.66;12208697;19;20050;-83
2023/10/29 01:04:08;;;;;;;3.65;0.77;;;;;;;15.47;86.54;98145.34;12237601;19;20010;-85
2023/10/29 01:08:31;;;;;;;1.58;0.75;;;;;;;15.52;85.72;98136.84;12237140;19;20164;-85
2023/10/29 01:12:33;;;;;;;1.30;0.70;;;;;;;15.60;86.12;98130.50;12233796;19;20010;-83
2023/10/29 01:16:35;;;;;;;2.25;0.82;;;;;;;15.62;84.08;98111.56;12254401;19;20007;-84
2023/10/29 01:20:38;;;;;;;3.93;0.70;;;;;;;15.62;82.82;98107.97;12284331;19;20010;-85
2023/10/29 01:24:55;;;;;;;0.77;0.50;;;;;;;15.66;83.05;98100.63;12280170;19;19991;-85
2023/10/29 01:29:33;;;;;;;3.28;0.73;;;;;;;15.71;82.43;98117.16;12247507;19;20048;-85
2023/10/29 01:33:40;;;;;;;1.52;0.65;;;;;;;15.74;80.81;98119.28;12222276;19;20011;-85
2023/10/29 01:37:42;;;;;;;2.25;0.55;;;;;;;15.77;79.40;98107.53;12229684;19;20025;-84
2023/10/29 01:42:01;;;;;;;1.23;0.57;;;;;;;15.86;75.71;98088.09;12227351;19;20346;-84
2023/10/29 01:46:03;;;;;;;2.03;0.60;;;;;;;15.97;75.20;98086.59;12227564;19;20010;-85
2023/10/29 01:50:15;;;;;;;1.63;0.80;;;;;;;16.07;74.62;98086.28;12229266;19;20018;-85
2023/10/29 01:54:22;;;;;;;1.10;0.60;;;;;;;16.15;73.94;98073.53;12231226;19;20034;-85
2023/10/29 01:58:32;;;;;;;2.63;0.80;;;;;;;16.19;74.61;98060.63;12229463;19;20002;-87
2023/10/29 02:02:34;;;;;;;1.60;0.60;;;;;;;16.17;73.43;98055.38;12194542;19;20018;-86
2023/10/29 02:06:39;;;;;;;;;;;;;;;16.16;70.87;98044.59;12197903;19;20122;-84
2023/10/29 02:10:41;;;;;;;4.15;1.10;;;;;;;16.29;72.06;98024.13;12183068;19;19939;-85
2023/10/29 02:14:44;;;;;;;1.33;0.93;;;;;;;16.30;69.60;98024.94;12200439;19;20496;-87
2023/10/29 02:18:47;;;;;;;4.38;1.70;;;;;;;16.40;69.81;98017.06;12205311;19;20015;-84
2023/10/29 02:22:48;;;;;;;7.35;3.30;;;;;;;16.41;67.63;98015.91;12185055;19;19999;-84
2023/10/29 02:26:50;;;;;;;4.43;2.22;;;;;;;16.52;65.67;98010.00;12208336;19;20011;-84
2023/10/29 02:30:52;;;;;;;4.07;1.50;;;;;;;16.58;68.16;97994.78;12201643;19;20062;-85
2023/10/29 02:34:54;;;;;;;2.28;1.02;;;;;;;16.53;68.33;98017.19;12182611;19;20026;-86
2023/10/29 02:39:03;;;;;;;1.38;0.70;;;;;;;16.56;68.71;98009.00;12199835;19;20066;-85
2023/10/29 02:43:06;;;;;;;3.73;1.23;;;;;;;16.54;69.35;98018.84;12181418;19;20341;-85
2023/10/29 02:47:07;;;;;;;1.27;0.60;;;;;;;16.41;70.09;98015.91;12199643;19;20017;-84
2023/10/29 02:51:12;;;;;;;1.33;0.70;;;;;;;16.39;68.75;98028.53;12199563;19;20485;-85
2023/10/29 02:55:14;;;;;;;3.15;0.70;;;;;;;16.37;67.12;98039.16;12179685;19;20004;-84
2023/10/29 02:59:17;;;;;;;2.60;0.50;;;;;;;16.32;68.80;98079.06;12201734;19;20010;-84
2023/10/29 03:03:18;;;;;;;3.40;0.73;;;;;;;16.15;69.10;98079.91;12202022;19;20033;-84
2023/10/29 03:07:21;;;;;;;3.40;0.70;;;;;;;16.02;71.49;98063.41;12176854;19;20014;-84
2023/10/29 03:11:22;;;;;;;1.52;0.70;;;;;;;15.80;73.35;98056.91;12200472;19;20014;-85
2023/10/29 03:15:26;;;;;;;3.43;0.93;;;;;;;15.62;74.73;98056.03;12198103;19;19999;-84
2023/10/29 03:19:29;;;;;;;1.20;0.70;;;;;;;15.53;75.61;98057.16;12179018;19;20477;-85
2023/10/29 03:23:31;;;;;;;2.45;0.82;;;;;;;15.47;76.78;98049.00;12202395;19;20339;-85
2023/10/29 03:27:34;;;;;;;1.83;0.95;;;;;;;15.34;78.04;98057.47;12199673;19;20031;-85
2023/10/29 03:31:38;;;;;;;2.70;1.03;;;;;;;15.20;79.44;98058.44;12176084;19;20018;-85
2023/10/29 03:35:39;;;;;;;3.22;0.93;;;;;;;15.07;81.08;98072.44;12197113;19;20291;-84
2023/10/29 03:39:41;;;;;;;4.03;1.02;;;;;;;14.95;82.18;98087.72;12194363;19;20010;-84
2023/10/29 03:43:43;;;;;;;1.60;0.70;;;;;;;14.86;83.81;98097.16;12179506;19;20010;-85
2023/10/29 03:47:45;;;;;;;2.78;1.00;;;;;;;14.77;85.08;98091.56;12194910;19;20371;-84
2023/10/29 03:51:51;;;;;;;4.18;1.08;;;;;;;14.66;85.88;98101.28;12198239;19;20025;-85
2023/10/29 03:55:58;;;;;;;2.10;0.95;;;;;;;14.59;86.59;98116.41;12173674;19;20014;-85
2023/10/29 04:00:00;;;;;;;1.95;1.00;;;;;;;14.55;87.76;98118.22;12198029;19;20011;-85
2023/10/29 04:04:03;;;;;;;2.50;0.83;;;;;;;14.51;88.78;98103.31;12176509;19;20010;-85
2023/10/29 04:08:05;;;;;;;1.75;0.95;;;;;;;14.43;90.24;98115.16;12196055;19;20028;-85
2023/10/29 04:12:07;;;;;;;3.05;1.15;;;;;;;14.34;91.10;98111.53;12193778;19;21430;-84
2023/10/29 04:16:08;;;;;;;5.67;1.20;;;;;;;14.21;93.65;98102.13;12180049;19;20339;-84
2023/10/29 04:20:11;;;;;;;2.93;1.30;;;;;;;14.11;95.37;98103.22;12193779;19;20011;-83
2023/10/29 04:24:13;;;;;;;1.90;1.30;;;;;;;14.00;96.67;98098.22;12197488;19;20014;-84
2023/10/29 04:28:15;;;;;;;1.95;1.20;;;;;;;13.97;97.60;98091.38;12173151;19;20026;-83
2023/10/29 04:32:17;;;;;;;4.45;1.52;;;;;;;13.89;100.00;98081.03;12194799;19;20030;-85
2023/10/29 04:36:19;;;;;;;5.60;1.00;;;;;;;13.83;100.00;98096.13;12194756;19;20018;-83
2023/10/29 04:40:21;;;;;;;3.83;1.15;;;;;;;13.74;100.00;98098.84;12172485;19;20128;-84
2023/10/29 04:44:23;;;;;;;2.73;0.97;;;;;;;13.74;100.00;98092.47;12203233;19;20050;-84
2023/10/29 04:48:25;;;;;;;5.43;1.90;;;;;;;13.71;100.00;98090.34;12197503;19;20013;-84
2023/10/29 04:52:27;;;;;;;5.47;1.20;;;;;;;13.65;100.00;98079.41;12170778;19;20006;-83
2023/10/29 04:56:29;;;;;;;3.17;1.13;;;;;;;13.58;100.00;98109.44;12192513;19;20007;-82
2023/10/29 05:00:30;;;;;;;1.58;0.80;;;;;;;13.51;100.00;98106.28;12194119;19;20014;-82
2023/10/29 05:04:33;;;;;;;3.33;1.30;;;;;;;13.68;100.00;98123.06;12168417;19;20010;-83
2023/10/29 05:08:35;;;;;;;2.33;0.80;;;;;;;13.95;100.00;98115.81;12189645;19;20026;-83
2023/10/29 05:12:37;;;;;;;2.00;1.10;;;;;;;14.06;100.00;98097.78;12191103;19;20273;-83
2023/10/29 05:16:39;;;;;;;2.35;0.88;;;;;;;14.00;100.00;98101.81;12177787;19;20010;-83
2023/10/29 05:20:42;;;;;;;1.77;0.70;;;;;;;14.00;100.00;98099.03;12201352;19;20007;-83
2023/10/29 05:24:43;;;;;;;4.25;1.40;;;;;;;13.95;100.00;98103.88;12199737;19;20006;-82
2023/10/29 05:28:45;;;;;;;3.10;1.10;;;;;;;13.88;100.00;98101.56;12180053;19;20333;-81
2023/10/29 05:32:48;;;;;;;4.18;1.00;;;;;;;13.80;100.00;98092.06;12201417;19;20030;-83
2023/10/29 05:36:51;;;;;;;2.47;1.02;;;;;;;13.78;100.00;98090.75;12196655;19;20003;-81
2023/10/29 05:40:52;;;;;;;3.00;1.58;;;;;;;13.76;100.00;98102.13;12177883;19;20518;-80
2023/10/29 05:44:55;;;;;;;;;;;;;;;13.73;100.00;98113.81;12205192;19;20031;-81
2023/10/29 05:48:57;;;;;;;3.55;1.40;;;;;;;13.80;100.00;98124.44;12179628;19;19966;-81
2023/10/29 05:52:59;;;;;;;2.38;0.93;;;;;;;13.91;100.00;98103.69;12199465;19;20711;-80
2023/10/29 05:57:01;;;;;;;2.45;1.17;;;;;;;14.04;100.00;98130.53;12203449;19;20014;-81
2023/10/29 06:01:04;;;;;;;2.67;0.90;;;;;;;14.10;100.00;98134.00;12177284;19;20007;-82
2023/10/29 06:05:07;;;;;;;3.15;0.80;;;;;;;14.20;100.00;98138.47;12198023;19;20028;-82
2023/10/29 06:09:13;;;;;;;3.50;0.82;;;;;;;14.27;100.00;98136.06;12201738;19;20041;-82
2023/10/29 06:13:24;;;;;;;2.35;1.17;;;;;;;14.29;100.00;98156.78;12181883;19;20006;-83
2023/10/29 06:17:26;;;;;;;1.73;0.93;;;;;;;14.31;100.00;98167.56;12199696;19;20010;-82
2023/10/29 06:21:29;;;;;;;2.15;0.90;;;;;;;14.31;100.00;98168.38;12198618;19;20361;-82
2023/10/29 06:25:32;;;;;;;5.18;1.10;;;;;;;14.23;100.00;98182.97;12176601;19;20019;-81
2023/10/29 06:29:36;;;;;;;1.85;1.10;;;;;;;14.23;100.00;98204.34;12200329;19;20034;-82
2023/10/29 06:33:41;;;;;;;4.47;1.10;;;;;;;14.15;100.00;98197.56;12210705;19;20014;-83
2023/10/29 06:37:43;;;;;;;5.43;1.83;;;;;;;14.00;100.00;98190.44;12187249;19;20871;-84
2023/10/29 06:41:45;;;;;;;6.10;2.40;;;;;;;13.80;100.00;98194.50;12207359;19;20011;-85
2023/10/29 06:45:47;;;;;;;5.60;1.90;;;;;;;13.63;100.00;98203.44;12205723;19;20074;-86
2023/10/29 06:49:53;;;;;;;3.45;1.63;;;;;;;13.58;100.00;98178.63;12181640;19;20006;-86
2023/10/29 06:53:54;;;;;;;5.53;1.70;;;;;;;13.44;100.00;98142.69;12200165;19;20015;-85
2023/10/29 06:57:57;;;;;;;5.57;1.95;;;;;;;13.35;100.00;98140.94;12177325;19;20371;-84
2023/10/29 07:01:59;;;;;;;4.40;1.58;;;;;;;13.32;100.00;98122.19;12197157;19;20007;-83
2023/10/29 07:06:06;;;;;;;5.57;2.05;;;;;;;13.30;100.00;98105.09;12201493;19;20034;-82
2023/10/29 07:10:08;;;;;;;7.47;1.70;;;;;;;13.19;100.00;98127.41;12180507;19;20009;-81
2023/10/29 07:14:11;;;;;;;3.45;1.52;;;;;;;13.36;100.00;98150.88;12196185;19;20029;-82
2023/10/29 07:18:13;;;;;;;;;;;;;;;13.44;100.00;98148.22;12190991;19;20014;-83
2023/10/29 07:22:16;;;;;;;2.90;0.90;;;;;;;13.47;100.00;98137.63;12173288;19;19919;-84
2023/10/29 07:26:18;;;;;;;2.07;1.17;;;;;;;13.57;100.00;98134.66;12199548;19;20240;-84
2023/10/29 07:30:20;;;;;;;3.55;1.40;;;;;;;13.61;100.00;98144.78;12197940;19;20746;-84
2023/10/29 07:34:21;;;;;;;5.05;1.10;;;;;;;13.67;100.00;98139.97;12177354;19;20088;-83
2023/10/29 07:38:23;;;;;;;2.05;1.13;;;;;;;13.76;100.00;98137.28;12197653;19;20114;-85
2023/10/29 07:42:25;;;;;;;3.45;1.50;;;;;;;13.82;100.00;98128.53;12197435;19;19999;-83
2023/10/29 07:46:29;;;;;;;3.25;1.40;;;;;;;13.84;100.00;98119.94;12170585;19;20077;-83
2023/10/29 07:50:30;;;;;;;3.17;1.40;;;;;;;13.86;100.00;98090.81;12201258;19;20030;-81
2023/10/29 07:54:32;;;;;;;2.67;1.17;;;;;;;13.91;100.00;98087.09;12201167;19;20006;-81
2023/10/29 07:58:38;;;;;;;2.88;1.10;;;;;;;13.95;100.00;98078.97;12180012;19;20014;-81
2023/10/29 08:02:41;;;;;;;2.63;0.98;;;;;;;13.89;100.00;98064.44;12201809;19;20070;-82
2023/10/29 08:06:44;;;;;;;3.10;1.00;;;;;;;13.95;100.00;98056.81;12200783;19;20031;-79
2023/10/29 08:10:45;;;;;;;2.50;1.03;;;;;;;14.11;100.00;98072.75;12174227;19;20018;-80
2023/10/29 08:14:48;;;;;;;;;;;;;;;14.33;100.00;98082.16;12165596;19;20023;-81
2023/10/29 08:18:51;;;;;;;2.20;1.20;;;;;;;14.56;100.00;98092.13;12195253;19;19915;-79
2023/10/29 08:22:55;;;;;;;2.92;1.33;;;;;;;14.73;100.00;98096.13;12179927;19;21016;-81
2023/10/29 08:26:57;;;;;;;2.93;1.10;;;;;;;14.82;100.00;98091.44;12226256;19;20013;-83
2023/10/29 08:30:58;;;;;;;3.45;1.40;;;;;;;14.87;100.00;98094.03;12208941;19;20044;-82
2023/10/29 08:35:00;;;;;;;1.80;0.80;;;;;;;14.85;100.00;98099.13;12228486;19;20010;-81
2023/10/29 08:39:04;;;;;;;2.72;1.08;;;;;;;15.04;100.00;98090.53;12224938;19;20036;-82
2023/10/29 08:43:06;;;;;;;3.95;1.20;;;;;;;15.08;100.00;98093.47;12204796;19;20019;-78
2023/10/29 08:47:08;;;;;;;1.10;0.80;;;;;;;15.19;100.00;98076.22;12227722;19;20734;-81
2023/10/29 08:51:11;;;;;;;3.85;1.20;;;;;;;15.37;100.00;98096.50;12244414;19;20013;-81
2023/10/29 08:55:14;;;;;;;2.47;1.33;;;;;;;15.45;100.00;98087.38;12220818;19;20023;-82
2023/10/29 08:59:16;;;;;;;2.08;0.80;;;;;;;15.48;100.00;98116.44;12210507;19;20031;-81
2023/10/29 09:03:18;;;;;;;2.85;1.10;;;;;;;15.35;100.00;98101.56;12206329;19;20030;-82
2023/10/29 09:07:21;;;;;;;1.98;0.75;;;;;;;15.39;100.00;98113.66;12186983;19;20007;-82
2023/10/29 09:11:25;;;;;;;1.85;1.00;;;;;;;15.45;100.00;98137.34;12213419;19;20055;-82
2023/10/29 09:15:27;;;;;;;1.83;0.80;;;;;;;15.51;100.00;98154.66;12210351;19;20015;-83
2023/10/29 09:19:29;;;;;;;1.27;0.63;;;;;;;15.55;100.00;98140.94;12193009;19;20007;-81
2023/10/29 09:23:32;;;;;;;1.85;1.02;;;;;;;15.63;100.00;98140.16;12217422;19;20018;-84
2023/10/29 09:27:34;;;;;;;0.93;0.83;;;;;;;15.76;100.00;98128.09;12217554;19;20007;-79
2023/10/29 09:31:36;;;;;;;6.45;1.23;;;;;;;15.77;100.00;98129.75;12192678;19;20026;-83
2023/10/29 09:35:38;;;;;;;2.00;1.02;;;;;;;15.72;100.00;98169.59;12214932;19;20018;-80
2023/10/29 09:39:39;;;;;;;3.08;0.98;;;;;;;15.67;100.00;98182.78;12211785;19;20007;-84
2023/10/29 09:43:41;;;;;;;2.20;1.15;;;;;;;15.62;100.00;98186.53;12188251;19;20038;-84
2023/10/29 09:47:43;;;;;;;3.60;1.13;;;;;;;15.52;100.00;98195.16;12205114;19;20355;-84
2023/10/29 09:51:46;;;;;;;2.20;1.10;;;;;;;15.46;100.00;98208.34;12203176;19;20788;-80
2023/10/29 09:55:51;;;;;;;3.75;1.20;;;;;;;15.45;100.00;98195.63;12184050;19;20580;-81
2023/10/29 09:59:53;;;;;;;1.35;0.77;;;;;;;15.42;100.00;98209.34;12204954;19;20044;-83
2023/10/29 10:03:54;;;;;;;3.15;1.17;;;;;;;15.34;100.00;98216.47;12195144;19;20022;-82
2023/10/29 10:07:57;;;;;;;2.15;1.00;;;;;;;15.15;100.00;98230.59;12208771;19;20014;-82
2023/10/29 10:12:05;;;;;;;5.25;1.35;;;;;;;15.03;100.00;98206.22;12197150;19;20022;-82
2023/10/29 10:16:12;;;;;;;1.88;1.05;;;;;;;14.89;100.00;98199.13;12191908;19;20003;-82
2023/10/29 10:20:16;;;;;;;1.42;0.80;;;;;;;14.77;100.00;98203.28;12213463;19;20043;-82
2023/10/29 10:24:17;;;;;;;1.77;0.85;;;;;;;14.77;100.00;98219.09;12212712;19;20014;-80
2023/10/29 10:28:19;;;;;;;3.35;0.85;;;;;;;14.72;100.00;98210.91;12181342;19;20010;-83
2023/10/29 10:32:28;;;;;;;1.30;0.70;;;;;;;14.64;100.00;98218.06;12212190;19;20015;-82
2023/10/29 10:36:31;;;;;;;1.70;1.23;;;;;;;14.65;100.00;98208.59;12214154;19;20037;-83
2023/10/29 10:40:33;;;;;;;1.98;0.88;;;;;;;14.68;100.00;98213.50;12191202;19;20366;-82
2023/10/29 10:44:36;;;;;;;1.33;1.00;;;;;;;14.73;100.00;98205.06;12210819;19;20015;-81
2023/10/29 10:48:41;;;;;;;4.10;1.23;;;;;;;14.76;100.00;98203.63;12218404;19;20020;-80
2023/10/29 10:52:43;;;;;;;3.72;1.30;;;;;;;14.79;100.00;98201.03;12190565;19;20025;-79
2023/10/29 10:56:45;;;;;;;1.83;0.77;;;;;;;14.64;100.00;98195.88;12212544;19;20002;-81
2023/10/29 11:00:49;;;;;;;2.38;1.02;;;;;;;14.65;100.00;98203.03;12214443;19;20017;-81
2023/10/29 11:04:51;;;;;;;0.90;0.80;;;;;;;14.73;100.00;98198.72;12191931;19;20006;-83
2023/10/29 11:08:55;;;;;;;3.28;0.70;;;;;;;14.82;100.00;98194.03;12211155;19;20015;-80
2023/10/29 11:13:17;;;;;;;2.72;0.90;;;;;;;14.70;100.00;98202.94;12195624;19;20067;-81
2023/10/29 11:17:57;;;;;;;2.22;1.02;;;;;;;14.66;100.00;98198.31;12209618;19;20378;-82
2023/10/29 11:22:21;;;;;;;2.95;0.82;;;;;;;14.62;100.00;98202.88;12188104;19;20029;-83
2023/10/29 11:26:24;;;;;;;2.08;0.75;;;;;;;14.53;100.00;98206.38;12209026;19;20025;-83
2023/10/29 11:30:28;;;;;;;7.07;1.90;;;;;;;14.55;100.00;98200.53;12208163;19;20014;-83
2023/10/29 11:34:30;;;;;;;3.80;1.00;;;;;;;14.53;100.00;98200.84;12183299;19;20007;-83
2023/10/29 11:38:36;;;;;;;3.55;1.13;;;;;;;14.55;100.00;98200.53;12202442;19;20753;-84
2023/10/29 11:42:38;;;;;;;1.75;0.90;;;;;;;14.49;100.00;98227.53;12200807;19;19999;-83
2023/10/29 11:46:58;;;;;;;6.70;1.10;;;;;;;14.54;100.00;98230.19;12177949;19;20135;-85
2023/10/29 11:51:03;;;;;;;2.05;1.00;;;;;;;14.65;100.00;98219.69;12199668;19;20038;-85
2023/10/29 11:55:07;;;;;;;3.42;1.13;;;;;;;14.57;100.00;98232.34;12184305;19;20428;-85
2023/10/29 11:59:09;;;;;;;4.10;1.17;;;;;;;14.53;100.00;98228.56;12201896;19;20725;-84
2023/10/29 12:03:17;;;;;;;6.50;1.38;;;;;;;14.50;100.00;98231.13;12205141;19;20023;-84
2023/10/29 12:07:26;;;;;;;3.90;1.45;;;;;;;14.48;100.00;98219.50;12179953;19;20422;-84
2023/10/29 12:11:30;;;;;;;3.42;1.27;;;;;;;14.49;100.00;98196.22;12202497;19;21284;-82
2023/10/29 12:15:32;;;;;;;3.85;1.48;;;;;;;14.47;100.00;98215.13;12198163;19;20029;-84
2023/10/29 12:19:38;;;;;;;3.13;1.70;;;;;;;14.42;100.00;98193.88;12173713;19;20457;-83
2023/10/29 12:23:40;;;;;;;6.20;2.10;;;;;;;14.42;100.00;98206.91;12190881;19;20118;-83
2023/10/29 12:27:44;;;;;;;3.80;1.92;;;;;;;14.37;100.00;98185.72;12188335;19;20014;-83
2023/10/29 12:31:47;;;;;;;4.85;1.88;;;;;;;14.39;100.00;98171.53;12175827;19;20039;-83
2023/10/29 12:35:53;;;;;;;4.20;1.67;;;;;;;14.39;100.00;98169.56;12195324;19;20014;-84
2023/10/29 12:39:59;;;;;;;4.68;1.70;;;;;;;14.49;100.00;98169.34;12172259;19;20026;-83
2023/10/29 12:44:02;;;;;;;3.67;1.95;;;;;;;14.53;100.00;98175.91;12188003;19;20078;-85
2023/10/29 12:48:11;;;;;;;;;;;;;;;14.50;100.00;98165.41;12193588;19;20033;-84
2023/10/29 12:52:14;;;;;;;5.28;2.60;;;;;;;14.52;100.00;98179.81;12189394;19;19904;-84
2023/10/29 12:56:15;;;;;;;4.28;2.30;;;;;;;14.54;100.00;98171.97;12212411;19;20030;-85
2023/10/29 13:00:17;;;;;;;3.03;2.05;;;;;;;14.59;100.00;98158.00;12207599;19;20100;-83
2023/10/29 13:04:21;;;;;;;4.28;2.30;;;;;;;14.62;100.00;98162.09;12180680;19;20002;-85
2023/10/29 13:08:29;;;;;;;7.45;3.22;;;;;;;14.64;100.00;98164.56;12203862;19;20030;-84
2023/10/29 13:12:31;;;;;;;5.95;2.47;;;;;;;14.63;100.00;98169.28;12209269;19;20010;-84
2023/10/29 13:16:32;;;;;;;5.97;3.00;;;;;;;14.62;100.00;98164.88;12190916;19;20010;-83
2023/10/29 13:20:34;;;;;;;8.77;3.28;;;;;;;14.55;100.00;98162.56;12207214;19;20041;-85
2023/10/29 13:24:37;;;;;;;7.03;3.30;;;;;;;14.50;100.00;98146.00;12203727;19;20037;-84
2023/10/29 13:28:38;;;;;;;11.67;3.93;;;;;;;14.54;100.00;98138.72;12179276;19;20042;-85
2023/10/29 13:32:41;;;;;;;7.10;3.20;;;;;;;14.56;100.00;98130.09;12203204;19;20007;-84
2023/10/29 13:36:43;;;;;;;6.53;3.57;;;;;;;14.54;100.00;98112.97;12200969;19;20010;-84
2023/10/29 13:40:46;;;;;;;9.98;3.95;;;;;;;14.61;100.00;98112.53;12179608;19;20334;-84
2023/10/29 13:44:47;;;;;;;8.83;3.97;;;;;;;14.65;100.00;98119.06;12199115;19;20078;-85
2023/10/29 13:48:53;;;;;;;4.90;3.70;;;;;;;14.67;100.00;98119.56;12203345;19;20014;-84
2023/10/29 13:52:54;;;;;;;6.50;3.47;;;;;;;14.77;100.00;98097.91;12177361;19;20652;-82
2023/10/29 13:56:57;;;;;;;6.88;4.00;;;;;;;14.86;100.00;98099.91;12198631;19;20055;-86
2023/10/29 14:01:00;;;;;;;6.60;3.97;;;;;;;14.89;100.00;98080.69;12180304;19;20031;-84
2023/10/29 14:05:01;;;;;;;7.45;4.78;;;;;;;14.87;100.00;98074.63;12192339;19;20015;-85
2023/10/29 14:09:04;;;;;;;10.47;5.23;;;;;;;14.86;100.00;98061.91;12200677;19;20739;-83
2023/10/29 14:13:06;;;;;;;7.47;4.90;;;;;;;14.81;100.00;98065.66;12173681;19;20002;-85
2023/10/29 14:17:08;;;;;;;9.07;5.28;;;;;;;14.75;100.00;98079.97;12197385;19;20387;-84
2023/10/29 14:21:10;;;;;;;9.23;5.43;;;;;;;14.67;100.00;98092.66;12195051;19;20006;-85
2023/10/29 14:25:13;;;;;;;9.55;5.38;;;;;;;14.38;100.00;98151.31;12176775;19;20003;-83
2023/10/29 14:29:16;;;;;;;12.82;7.35;;;;;;;14.27;100.00;98133.31;12201845;19;20385;-87
2023/10/29 14:33:21;;;;;;;13.18;5.72;;;;;;;14.13;100.00;98139.72;12211583;19;20022;-85
2023/10/29 14:37:23;;;;;;;12.68;6.28;;;;;;;14.07;100.00;98129.09;12195643;19;20006;-88
2023/10/29 14:41:26;;;;;;;9.60;6.07;;;;;;;14.05;100.00;98161.81;12210083;19;20014;-87
2023/10/29 14:45:27;;;;;;;9.65;5.38;;;;;;;14.04;100.00;98155.47;12194999;19;20071;-87
2023/10/29 14:49:29;;;;;;;11.00;5.22;;;;;;;14.00;100.00;98167.47;12180849;19;20003;-87
2023/10/29 14:53:35;;;;;;;11.50;5.07;;;;;;;13.99;100.00;98147.25;12197461;19;20340;-85
2023/10/29 14:57:37;;;;;;;9.60;4.80;;;;;;;14.00;100.00;98137.00;12194624;19;20003;-83
2023/10/29 15:01:40;;;;;;;12.88;5.65;;;;;;;14.02;100.00;98132.78;12166970;19;20255;-84
2023/10/29 15:05:42;;;;;;;12.27;4.93;;;;;;;14.02;100.00;98130.03;12191304;19;20014;-81
2023/10/29 15:09:47;;;;;;;9.80;5.50;;;;;;;14.03;100.00;98128.06;12191984;19;20002;-84
2023/10/29 15:13:49;;;;;;;8.00;5.53;;;;;;;13.97;100.00;98146.75;12166120;19;20037;-84
2023/10/29 15:17:52;;;;;;;11.50;5.50;;;;;;;13.98;100.00;98100.50;12189243;19;20006;-83
2023/10/29 15:21:54;;;;;;;9.40;4.87;;;;;;;13.87;100.00;98163.63;12179497;19;20369;-81
2023/10/29 15:25:56;;;;;;;7.97;5.07;;;;;;;13.85;100.00;98222.06;12191244;19;20489;-80
2023/10/29 15:30:05;;;;;;;11.57;4.75;;;;;;;13.87;100.00;98197.66;12186556;19;20034;-83
2023/10/29 15:34:11;;;;;;;8.43;4.40;;;;;;;13.88;100.00;98179.91;12167609;19;20046;-83
2023/10/29 15:38:13;;;;;;;6.18;4.30;;;;;;;13.88;100.00;98240.00;12183917;19;20010;-82
2023/10/29 15:42:15;;;;;;;9.75;4.88;;;;;;;13.81;100.00;98247.91;12189190;19;20013;-82
2023/10/29 15:46:17;;;;;;;7.57;4.82;;;;;;;13.79;100.00;98288.91;12171546;19;20003;-83
2023/10/29 15:50:19;;;;;;;8.02;4.93;;;;;;;13.76;100.00;98284.00;12184374;19;20391;-83
2023/10/29 15:54:21;;;;;;;9.45;4.28;;;;;;;13.75;100.00;98285.13;12189466;19;20007;-83
2023/10/29 15:58:30;;;;;;;6.65;3.53;;;;;;;13.72;100.00;98267.19;12170422;19;20505;-84
2023/10/29 16:02:32;;;;;;;5.72;3.63;;;;;;;13.72;100.00;98249.78;12186784;19;20019;-83
2023/10/29 16:06:35;;;;;;;;;;;;;;;13.71;100.00;98240.63;12192705;19;20370;-82
2023/10/29 16:10:37;;;;;;;9.40;3.60;;;;;;;13.65;100.00;98255.69;12168096;19;19915;-83
2023/10/29 16:14:39;;;;;;;6.90;3.43;;;;;;;13.63;100.00;98280.13;12185245;19;20468;-82
2023/10/29 16:18:41;;;;;;;7.13;2.95;;;;;;;13.56;100.00;98301.81;12185306;19;20018;-82
2023/10/29 16:22:45;;;;;;;6.10;3.00;;;;;;;13.54;100.00;98298.56;12161611;19;20018;-83
2023/10/29 16:26:48;;;;;;;;;;;;;;;13.54;100.00;98276.44;12180565;19;20026;-81
2023/10/29 16:30:50;;;;;;;3.60;2.10;;;;;;;13.49;100.00;98302.25;12181417;19;19907;-82
2023/10/29 16:34:52;;;;;;;3.72;2.28;;;;;;;13.41;100.00;98327.84;12162300;19;20027;-79
2023/10/29 16:38:56;;;;;;;4.88;2.42;;;;;;;13.44;100.00;98316.16;12191449;19;20014;-80
2023/10/29 16:42:57;;;;;;;4.63;2.20;;;;;;;13.42;100.00;98332.25;12210240;19;20039;-81
2023/10/29 16:47:01;;;;;;;3.05;2.05;;;;;;;13.37;100.00;98316.56;12227658;19;20010;-81
2023/10/29 16:51:07;;;;;;;3.80;1.73;;;;;;;13.40;100.00;98298.53;12201751;19;20011;-83
2023/10/29 16:55:11;;;;;;;3.05;1.58;;;;;;;13.38;100.00;98290.53;12172260;19;20025;-82
2023/10/29 16:59:13;;;;;;;3.13;1.63;;;;;;;13.35;100.00;98290.31;12187213;19;20097;-83
2023/10/29 17:03:15;;;;;;;2.97;1.57;;;;;;;13.29;100.00;98286.81;12182258;19;20018;-81
2023/10/29 17:07:17;;;;;;;4.85;1.85;;;;;;;13.31;100.00;98286.53;12163643;19;20619;-82
2023/10/29 17:11:19;;;;;;;3.83;1.13;;;;;;;13.29;100.00;98308.97;12185421;19;20006;-83
2023/10/29 17:15:21;;;;;;;3.30;1.25;;;;;;;13.30;100.00;98307.03;12189105;19;20014;-82
2023/10/29 17:19:23;;;;;;;7.03;1.33;;;;;;;13.28;100.00;98314.81;12164389;19;20122;-82
2023/10/29 17:23:25;;;;;;;4.30;1.45;;;;;;;13.26;100.00;98312.34;12188092;19;20018;-82
2023/10/29 17:27:28;;;;;;;4.63;1.75;;;;;;;13.23;100.00;98302.66;12182183;19;20010;-82
2023/10/29 17:31:33;;;;;;;3.33;1.50;;;;;;;13.25;100.00;98301.56;12158591;19;20007;-81
2023/10/29 17:35:35;;;;;;;3.83;1.53;;;;;;;13.23;100.00;98340.56;12186883;19;20006;-82
2023/10/29 17:39:37;;;;;;;4.03;0.80;;;;;;;13.21;100.00;98331.78;12197570;19;20370;-82
2023/10/29 17:43:40;;;;;;;2.08;1.00;;;;;;;13.20;100.00;98327.34;12183296;19;20670;-84
2023/10/29 17:47:42;;;;;;;3.60;1.00;;;;;;;13.22;100.00;98306.56;12205385;19;20010;-82
2023/10/29 17:51:44;;;;;;;2.05;0.93;;;;;;;13.22;100.00;98314.84;12204871;19;20022;-84
2023/10/29 17:55:53;;;;;;;3.40;1.55;;;;;;;13.20;100.00;98333.69;12193319;19;20010;-82
2023/10/29 17:59:55;;;;;;;2.97;1.30;;;;;;;13.20;100.00;98322.63;12212739;19;20007;-85
2023/10/29 18:03:58;;;;;;;2.47;1.00;;;;;;;13.21;100.00;98318.75;12192052;19;20010;-83
2023/10/29 18:08:00;;;;;;;;;;;;;;;13.15;100.00;98335.75;12212329;19;20007;-85
2023/10/29 18:12:03;;;;;;;1.45;0.80;;;;;;;13.17;100.00;98336.25;12206054;19;20426;-85
2023/10/29 18:16:05;;;;;;;3.75;0.80;;;;;;;13.19;100.00;98332.06;12189431;19;20010;-84
2023/10/29 18:20:08;;;;;;;1.77;0.60;;;;;;;13.22;100.00;98333.41;12207301;19;20007;-83
2023/10/29 18:24:11;;;;;;;1.20;0.73;;;;;;;13.21;100.00;98346.41;12212351;19;20110;-85
2023/10/29 18:28:14;;;;;;;1.13;0.65;;;;;;;13.29;100.00;98352.41;12188944;19;20050;-84
2023/10/29 18:32:16;;;;;;;4.10;0.60;;;;;;;13.25;100.00;98351.34;12215034;19;20014;-83
2023/10/29 18:36:24;;;;;;;1.60;0.80;;;;;;;13.24;100.00;98350.53;12219573;19;20017;-81
2023/10/29 18:40:26;;;;;;;2.25;1.10;;;;;;;13.26;100.00;98369.59;12199305;19;20006;-84
2023/10/29 18:44:30;;;;;;;2.55;0.70;;;;;;;13.26;100.00;98355.78;12213700;19;20107;-81